createdAt,value
2022-11-21T00:01:28.498Z,0.90
2022-11-21T00:03:55.543Z,0.90
2022-11-21T00:06:23.824Z,1.00
2022-11-21T00:08:51.297Z,1.00
2022-11-21T00:11:18.412Z,1.00
2022-11-21T00:13:45.631Z,1.00
2022-11-21T00:16:15.660Z,1.00
2022-11-21T00:18:44.199Z,1.00
2022-11-21T00:21:17.779Z,1.00
2022-11-21T00:23:46.483Z,1.10
2022-11-21T00:26:15.982Z,1.10
2022-11-21T00:28:43.286Z,1.00
2022-11-21T00:31:20.523Z,1.00
2022-11-21T00:33:47.846Z,1.10
2022-11-21T00:36:15.189Z,1.10
2022-11-21T00:38:42.237Z,0.80
2022-11-21T00:41:09.379Z,1.00
2022-11-21T00:43:36.497Z,0.90
2022-11-21T00:46:04.416Z,1.00
2022-11-21T00:48:32.486Z,1.00
2022-11-21T00:51:02.769Z,1.00
2022-11-21T00:53:30.246Z,1.00
2022-11-21T00:55:58.010Z,0.80
2022-11-21T00:58:25.781Z,0.90
2022-11-21T01:00:53.302Z,0.90
2022-11-21T01:03:20.524Z,0.80
2022-11-21T01:05:47.608Z,0.70
2022-11-21T01:08:14.699Z,0.70
2022-11-21T01:10:41.763Z,0.80
2022-11-21T01:13:08.918Z,0.80
2022-11-21T01:15:35.953Z,0.80
2022-11-21T01:18:03.394Z,0.70
2022-11-21T01:20:30.462Z,0.90
2022-11-21T01:22:57.550Z,1.00
2022-11-21T01:25:24.745Z,0.90
2022-11-21T01:27:51.818Z,0.90
2022-11-21T01:30:18.998Z,1.00
2022-11-21T01:32:49.697Z,1.10
2022-11-21T01:35:17.898Z,1.10
2022-11-21T01:37:49.378Z,1.20
2022-11-21T01:40:17.117Z,1.20
2022-11-21T01:43:00.320Z,1.20
2022-11-21T01:46:07.969Z,1.20
2022-11-21T01:48:43.336Z,1.30
2022-11-21T01:51:38.790Z,1.50
2022-11-21T01:54:20.546Z,1.50
2022-11-21T01:56:58.968Z,1.50
2022-11-21T01:59:36.284Z,1.40
2022-11-21T02:02:08.931Z,1.40
2022-11-21T02:04:37.200Z,1.60
2022-11-21T02:07:07.287Z,1.60
2022-11-21T02:09:38.034Z,1.70
2022-11-21T02:12:13.696Z,1.80
2022-11-21T02:14:43.011Z,1.70
2022-11-21T02:17:10.917Z,1.70
2022-11-21T02:19:50.489Z,1.80
2022-11-21T02:22:49.321Z,1.80
2022-11-21T02:25:24.170Z,1.80
2022-11-21T02:27:56.450Z,1.80
2022-11-21T02:30:24.000Z,1.70
2022-11-21T02:32:51.127Z,1.80
2022-11-21T02:35:19.555Z,1.90
2022-11-21T02:37:55.244Z,2.00
2022-11-21T02:40:49.848Z,2.10
2022-11-21T02:43:24.613Z,2.10
2022-11-21T02:45:51.855Z,2.20
2022-11-21T02:48:19.096Z,2.20
2022-11-21T02:50:47.535Z,2.30
2022-11-21T02:53:17.971Z,2.30
2022-11-21T02:55:45.664Z,2.30
2022-11-21T02:58:13.165Z,2.40
2022-11-21T03:00:42.968Z,2.50
2022-11-21T03:03:10.265Z,2.40
2022-11-21T03:05:39.181Z,2.40
2022-11-21T03:08:06.798Z,2.50
2022-11-21T03:10:34.426Z,2.60
2022-11-21T03:13:01.740Z,2.60
2022-11-21T03:15:33.088Z,2.70
2022-11-21T03:18:04.357Z,2.70
2022-11-21T03:20:34.457Z,2.70
2022-11-21T03:23:02.119Z,2.70
2022-11-21T03:25:30.004Z,2.60
2022-11-21T03:27:57.182Z,2.60
2022-11-21T03:30:27.272Z,2.70
2022-11-21T03:32:58.223Z,2.60
2022-11-21T03:35:25.725Z,2.70
2022-11-21T03:37:52.814Z,2.80
2022-11-21T03:40:20.066Z,2.80
2022-11-21T03:42:47.329Z,2.80
2022-11-21T03:45:14.566Z,2.90
2022-11-21T03:47:42.128Z,2.80
2022-11-21T03:50:10.793Z,2.80
2022-11-21T03:52:37.852Z,2.80
2022-11-21T03:55:05.526Z,2.60
2022-11-21T03:57:32.596Z,2.60
2022-11-21T03:59:59.918Z,2.40
2022-11-21T04:02:26.971Z,2.30
2022-11-21T04:04:54.044Z,2.50
2022-11-21T04:07:21.164Z,2.60
2022-11-21T04:09:48.221Z,2.50
2022-11-21T04:12:15.273Z,2.60
2022-11-21T04:14:42.250Z,2.60
2022-11-21T04:17:09.451Z,2.40
2022-11-21T04:19:36.463Z,2.50
2022-11-21T04:22:03.815Z,2.60
2022-11-21T04:24:31.204Z,2.80
2022-11-21T04:26:58.393Z,2.80
2022-11-21T04:29:25.624Z,2.90
2022-11-21T04:31:52.741Z,2.90
2022-11-21T04:34:19.840Z,2.90
2022-11-21T04:36:46.979Z,2.90
2022-11-21T04:39:14.227Z,2.90
2022-11-21T04:41:41.315Z,2.70
2022-11-21T04:44:08.468Z,2.70
2022-11-21T04:46:35.633Z,2.60
2022-11-21T04:49:03.024Z,2.60
2022-11-21T04:51:30.187Z,2.70
2022-11-21T04:53:57.446Z,2.80
2022-11-21T04:56:24.546Z,2.90
2022-11-21T04:58:53.598Z,2.80
2022-11-21T05:01:20.848Z,2.90
2022-11-21T05:03:48.100Z,2.90
2022-11-21T05:06:15.229Z,2.90
2022-11-21T05:08:42.441Z,3.00
2022-11-21T05:11:28.412Z,3.00
2022-11-21T05:13:55.973Z,3.10
2022-11-21T05:16:23.453Z,3.10
2022-11-21T05:18:50.605Z,3.20
2022-11-21T05:21:17.683Z,3.20
2022-11-21T05:23:44.828Z,3.20
2022-11-21T05:26:11.906Z,3.30
2022-11-21T05:28:38.984Z,3.30
2022-11-21T05:31:06.128Z,3.20
2022-11-21T05:33:33.512Z,3.10
2022-11-21T05:36:00.635Z,2.90
2022-11-21T05:38:27.736Z,2.90
2022-11-21T05:40:54.819Z,2.90
2022-11-21T05:43:40.257Z,2.90
2022-11-21T05:46:07.348Z,2.70
2022-11-21T05:48:36.643Z,2.80
2022-11-21T05:51:05.027Z,2.90
2022-11-21T05:53:32.541Z,2.90
2022-11-21T05:56:07.437Z,2.80
2022-11-21T05:58:35.569Z,2.80
2022-11-21T06:01:03.978Z,2.80
2022-11-21T06:03:35.423Z,2.70
2022-11-21T06:06:07.880Z,2.70
2022-11-21T06:08:46.530Z,2.70
2022-11-21T06:11:16.539Z,2.90
2022-11-21T06:13:44.688Z,2.80
2022-11-21T06:16:15.437Z,2.80
2022-11-21T06:18:46.127Z,2.90
2022-11-21T06:21:19.409Z,3.00
2022-11-21T06:23:48.071Z,3.10
2022-11-21T06:26:17.238Z,3.10
2022-11-21T06:28:45.766Z,3.10
2022-11-21T06:31:21.408Z,3.20
2022-11-21T06:33:52.553Z,3.20
2022-11-21T06:36:20.001Z,3.30
2022-11-21T06:38:47.474Z,3.20
2022-11-21T06:41:23.675Z,3.30
2022-11-21T06:43:50.842Z,3.30
2022-11-21T06:46:19.101Z,3.40
2022-11-21T06:48:46.505Z,3.40
2022-11-21T06:51:24.968Z,3.40
2022-11-21T06:53:58.043Z,3.30
2022-11-21T06:56:27.316Z,3.40
2022-11-21T06:58:55.877Z,3.40
2022-11-21T07:01:24.041Z,3.40
2022-11-21T07:03:51.896Z,3.40
2022-11-21T07:06:18.973Z,3.30
2022-11-21T07:08:46.245Z,3.40
2022-11-21T07:11:30.097Z,3.40
2022-11-21T07:13:57.168Z,3.30
2022-11-21T07:16:26.340Z,3.40
2022-11-21T07:18:53.786Z,3.20
2022-11-21T07:21:20.906Z,3.10
2022-11-21T07:23:48.781Z,3.00
2022-11-21T07:26:15.987Z,3.20
2022-11-21T07:28:43.355Z,2.90
2022-11-21T07:31:13.939Z,2.70
2022-11-21T07:33:46.762Z,2.60
2022-11-21T07:36:14.716Z,2.70
2022-11-21T07:38:42.332Z,2.60
2022-11-21T07:41:10.374Z,2.60
2022-11-21T07:43:37.546Z,2.40
2022-11-21T07:46:04.870Z,2.40
2022-11-21T07:48:31.978Z,2.40
2022-11-21T07:50:59.307Z,2.40
2022-11-21T07:53:26.432Z,2.50
2022-11-21T07:55:53.550Z,2.50
2022-11-21T07:58:20.715Z,2.30
2022-11-21T08:00:47.876Z,2.30
2022-11-21T08:03:15.183Z,2.20
2022-11-21T08:05:44.373Z,2.40
2022-11-21T08:08:13.330Z,2.30
2022-11-21T08:10:45.406Z,2.20
2022-11-21T08:13:13.751Z,1.90
2022-11-21T08:15:41.353Z,1.70
2022-11-21T08:18:14.699Z,1.70
2022-11-21T08:20:42.938Z,1.60
2022-11-21T08:23:10.896Z,1.70
2022-11-21T08:25:40.324Z,1.70
2022-11-21T08:28:09.132Z,1.80
2022-11-21T08:30:37.786Z,1.80
2022-11-21T08:33:05.978Z,1.60
2022-11-21T08:35:33.223Z,1.30
2022-11-21T08:38:01.981Z,1.30
2022-11-21T08:40:31.901Z,1.10
2022-11-21T08:43:00.606Z,1.10
2022-11-21T08:45:27.833Z,1.20
2022-11-21T08:47:55.399Z,1.30
2022-11-21T08:50:23.780Z,1.20
2022-11-21T08:52:51.279Z,1.20
2022-11-21T08:55:18.576Z,1.30
2022-11-21T08:57:45.686Z,1.30
2022-11-21T09:00:15.733Z,1.40
2022-11-21T09:02:42.990Z,1.40
2022-11-21T09:05:10.617Z,1.40
2022-11-21T09:07:37.846Z,1.40
2022-11-21T09:10:05.734Z,1.10
2022-11-21T09:12:32.935Z,1.40
2022-11-21T09:15:18.429Z,1.30
2022-11-21T09:18:03.519Z,1.40
2022-11-21T09:20:40.298Z,1.40
2022-11-21T09:23:13.756Z,1.40
2022-11-21T09:25:41.242Z,1.50
2022-11-21T09:28:11.148Z,1.50
2022-11-21T09:30:39.825Z,1.60
2022-11-21T09:33:15.200Z,1.60
2022-11-21T09:35:42.436Z,1.70
2022-11-21T09:38:10.044Z,1.70
2022-11-21T09:40:42.299Z,1.60
2022-11-21T09:43:45.775Z,1.40
2022-11-21T09:46:17.892Z,1.70
2022-11-21T09:48:59.198Z,1.70
2022-11-21T09:51:31.318Z,1.80
2022-11-21T09:54:19.670Z,1.90
2022-11-21T09:56:48.589Z,1.60
2022-11-21T09:59:37.233Z,1.60
2022-11-21T10:02:16.215Z,1.60
2022-11-21T10:04:45.522Z,1.70
2022-11-21T10:07:18.415Z,1.80
2022-11-21T10:10:32.973Z,1.90
2022-11-21T10:13:34.543Z,2.10
2022-11-21T10:16:24.354Z,1.80
2022-11-21T10:19:18.480Z,2.00
2022-11-21T10:22:18.193Z,2.00
2022-11-21T10:25:03.904Z,2.10
2022-11-21T10:27:50.554Z,1.90
2022-11-21T10:30:20.934Z,2.00
2022-11-21T10:32:57.568Z,1.90
2022-11-21T10:35:35.846Z,1.90
2022-11-21T10:38:25.590Z,1.90
2022-11-21T10:41:05.199Z,2.00
2022-11-21T10:44:02.653Z,1.70
2022-11-21T10:46:29.834Z,1.70
2022-11-21T10:49:03.794Z,1.90
2022-11-21T10:51:50.648Z,2.00
2022-11-21T10:54:33.169Z,1.80
2022-11-21T10:57:23.152Z,2.00
2022-11-21T11:00:13.012Z,2.10
2022-11-21T11:03:00.365Z,2.10
2022-11-21T11:05:29.896Z,2.20
2022-11-21T11:08:14.851Z,2.20
2022-11-21T11:11:04.536Z,2.20
2022-11-21T11:13:45.926Z,2.20
2022-11-21T11:16:19.531Z,2.00
2022-11-21T11:18:55.298Z,2.10
2022-11-21T11:21:29.455Z,2.10
2022-11-21T11:24:27.538Z,1.90
2022-11-21T11:27:00.243Z,1.80
2022-11-21T11:29:34.935Z,1.90
2022-11-21T11:32:21.659Z,2.00
2022-11-21T11:35:00.192Z,2.00
2022-11-21T11:37:47.215Z,2.20
2022-11-21T11:40:21.292Z,2.30
2022-11-21T11:43:38.450Z,2.40
2022-11-21T11:46:32.700Z,2.30
2022-11-21T11:49:21.111Z,2.20
2022-11-21T11:51:55.055Z,2.30
2022-11-21T11:54:47.078Z,2.20
2022-11-21T11:57:14.753Z,2.30
2022-11-21T11:59:50.102Z,2.50
2022-11-21T12:02:29.535Z,2.50
2022-11-21T12:05:15.258Z,2.30
2022-11-21T12:11:35.924Z,2.10
2022-11-21T12:14:37.669Z,2.30
2022-11-21T12:17:09.321Z,2.50
2022-11-21T12:19:38.665Z,2.50
2022-11-21T12:22:06.743Z,2.60
2022-11-21T12:24:39.830Z,2.60
2022-11-21T12:27:28.890Z,2.30
2022-11-21T12:30:09.511Z,2.50
2022-11-21T12:33:08.220Z,2.50
2022-11-21T12:36:17.837Z,2.70
2022-11-21T12:39:06.127Z,2.60
2022-11-21T12:42:11.998Z,2.70
2022-11-21T12:44:42.322Z,2.80
2022-11-21T12:47:18.337Z,2.90
2022-11-21T12:50:32.472Z,3.00
2022-11-21T12:53:32.137Z,3.10
2022-11-21T12:56:15.167Z,3.30
2022-11-21T12:58:48.728Z,3.20
2022-11-21T13:02:07.156Z,3.20
2022-11-21T13:04:38.803Z,3.20
2022-11-21T13:07:07.845Z,3.10
2022-11-21T13:09:42.631Z,3.10
2022-11-21T13:12:23.183Z,3.20
2022-11-21T13:15:02.824Z,3.00
2022-11-21T13:17:52.090Z,3.00
2022-11-21T13:20:39.330Z,3.00
2022-11-21T13:23:32.256Z,2.80
2022-11-21T13:25:59.488Z,2.90
2022-11-21T13:28:34.860Z,2.90
2022-11-21T13:31:06.580Z,3.00
2022-11-21T13:33:39.336Z,3.00
2022-11-21T13:36:27.892Z,3.10
2022-11-21T13:38:55.095Z,3.20
2022-11-21T13:41:53.567Z,3.30
2022-11-21T13:44:32.973Z,3.30
2022-11-21T13:47:20.316Z,3.40
2022-11-21T13:50:15.433Z,3.40
2022-11-21T13:53:18.534Z,3.30
2022-11-21T13:56:26.697Z,3.30
2022-11-21T13:59:38.554Z,3.30
2022-11-21T14:02:33.235Z,3.30
2022-11-21T14:05:12.193Z,3.40
2022-11-21T14:07:41.662Z,3.40
2022-11-21T14:10:33.619Z,3.50
2022-11-21T14:13:03.231Z,3.50
2022-11-21T14:15:52.815Z,3.50
2022-11-21T14:18:25.344Z,3.40
2022-11-21T14:21:01.096Z,3.40
2022-11-21T14:23:34.675Z,3.30
2022-11-21T14:26:13.036Z,3.20
2022-11-21T14:28:40.152Z,3.20
2022-11-21T14:31:10.006Z,3.20
2022-11-21T14:33:42.976Z,3.10
2022-11-21T14:36:26.056Z,3.10
2022-11-21T14:39:35.402Z,3.00
2022-11-21T14:41:57.159Z,3.10
2022-11-21T14:44:25.155Z,3.10
2022-11-21T14:47:13.388Z,3.00
2022-11-21T14:50:01.076Z,2.90
2022-11-21T14:52:34.171Z,2.80
2022-11-21T14:55:29.294Z,2.90
2022-11-21T14:57:55.856Z,2.70
2022-11-21T15:00:58.046Z,2.80
2022-11-21T15:06:11.330Z,2.80
2022-11-21T15:11:47.331Z,2.60
2022-11-21T15:14:39.653Z,2.50
2022-11-21T15:17:13.474Z,2.50
2022-11-21T15:19:42.695Z,2.40
2022-11-21T15:22:36.651Z,2.50
2022-11-21T15:25:19.085Z,2.50
2022-11-21T15:27:51.512Z,2.40
2022-11-21T15:30:18.649Z,2.50
2022-11-21T15:33:07.452Z,2.60
2022-11-21T15:35:57.762Z,2.40
2022-11-21T15:38:30.755Z,2.20
2022-11-21T15:41:09.810Z,2.20
2022-11-21T15:43:42.854Z,2.40
2022-11-21T15:46:24.011Z,2.40
2022-11-21T15:49:25.151Z,2.40
2022-11-21T15:54:38.222Z,2.30
2022-11-21T15:57:06.271Z,2.40
2022-11-21T15:57:14.418Z,2.30
2022-11-21T15:57:15.993Z,2.70
2022-11-21T15:59:33.509Z,2.40
2022-11-21T16:02:00.660Z,2.40
2022-11-21T16:04:27.914Z,2.50
2022-11-21T16:06:55.642Z,2.40
2022-11-21T16:09:23.134Z,2.40
2022-11-21T16:11:50.382Z,2.30
2022-11-21T16:14:20.949Z,2.30
2022-11-21T16:16:48.080Z,2.20
2022-11-21T16:19:16.168Z,2.40
2022-11-21T16:21:43.489Z,2.40
2022-11-21T16:24:10.705Z,2.50
2022-11-21T16:26:40.212Z,2.50
2022-11-21T16:29:07.295Z,2.70
2022-11-21T16:31:34.849Z,2.60
2022-11-21T16:34:02.591Z,2.70
2022-11-21T16:36:31.528Z,2.60
2022-11-21T16:39:09.037Z,2.60
2022-11-21T16:41:39.530Z,2.60
2022-11-21T16:44:16.404Z,2.70
2022-11-21T16:46:48.164Z,2.60
2022-11-21T16:49:15.347Z,2.40
2022-11-21T16:51:42.694Z,2.50
2022-11-21T16:54:09.926Z,2.50
2022-11-21T16:56:37.340Z,2.60
2022-11-21T16:59:04.581Z,2.50
2022-11-21T17:01:32.019Z,2.40
2022-11-21T17:03:59.470Z,2.50
2022-11-21T17:06:30.378Z,2.50
2022-11-21T17:09:01.235Z,2.40
2022-11-21T17:11:31.233Z,2.50
2022-11-21T17:14:06.478Z,2.60
2022-11-21T17:16:35.568Z,2.60
2022-11-21T17:19:03.865Z,2.50
2022-11-21T17:21:32.457Z,2.50
2022-11-21T17:23:59.616Z,2.60
2022-11-21T17:26:28.775Z,2.40
2022-11-21T17:29:01.243Z,2.50
2022-11-21T17:31:28.662Z,2.60
2022-11-21T17:34:00.978Z,2.70
2022-11-21T17:36:30.493Z,2.60
2022-11-21T17:38:57.837Z,2.60
2022-11-21T17:41:26.214Z,2.50
2022-11-21T17:43:57.996Z,2.40
2022-11-21T17:46:26.699Z,2.20
2022-11-21T17:48:58.103Z,1.90
2022-11-21T17:51:32.305Z,1.80
2022-11-21T17:54:00.788Z,1.90
2022-11-21T17:56:31.095Z,1.80
2022-11-21T17:58:58.263Z,1.70
2022-11-21T18:01:25.480Z,1.60
2022-11-21T18:04:15.042Z,1.60
2022-11-21T18:06:42.488Z,1.60
2022-11-21T18:09:13.569Z,1.50
2022-11-21T18:11:41.043Z,1.40
2022-11-21T18:14:10.665Z,1.40
2022-11-21T18:16:39.607Z,1.30
2022-11-21T18:19:09.445Z,1.30
2022-11-21T18:21:36.575Z,1.20
2022-11-21T18:24:03.945Z,1.10
2022-11-21T18:26:34.672Z,1.10
2022-11-21T18:31:57.378Z,1.10
2022-11-21T18:34:43.103Z,1.00
2022-11-21T18:37:10.644Z,0.90
2022-11-21T18:39:37.677Z,0.90
2022-11-21T18:42:04.816Z,0.90
2022-11-21T18:44:31.868Z,0.80
2022-11-21T18:46:59.130Z,0.80
2022-11-21T18:49:26.495Z,0.70
2022-11-21T18:51:53.954Z,0.70
2022-11-21T18:54:20.959Z,0.70
2022-11-21T18:56:48.086Z,0.60
2022-11-21T18:59:15.313Z,0.60
2022-11-21T19:01:42.487Z,0.60
2022-11-21T19:04:12.161Z,0.70
2022-11-21T19:06:39.402Z,0.60
2022-11-21T19:09:08.206Z,0.60
2022-11-21T19:11:35.346Z,0.70
2022-11-21T19:14:02.521Z,0.60
2022-11-21T19:16:31.558Z,0.60
2022-11-21T19:19:33.129Z,0.60
2022-11-21T19:21:47.294Z,0.50
2022-11-21T19:24:16.277Z,0.50
2022-11-21T19:26:43.697Z,0.50
2022-11-21T19:29:11.263Z,0.50
2022-11-21T19:31:44.725Z,0.50
2022-11-21T19:34:14.821Z,0.50
2022-11-21T19:36:42.616Z,0.50
2022-11-21T19:39:10.139Z,0.50
2022-11-21T19:41:37.569Z,0.40
2022-11-21T19:44:04.997Z,0.40
2022-11-21T19:46:35.995Z,0.40
2022-11-21T19:49:04.533Z,0.50
2022-11-21T19:51:41.362Z,0.50
2022-11-21T19:54:12.098Z,0.50
2022-11-21T19:56:39.891Z,0.50
2022-11-21T19:59:06.964Z,0.50
2022-11-21T20:01:35.532Z,0.40
2022-11-21T20:04:05.321Z,0.40
2022-11-21T20:06:41.433Z,0.40
2022-11-21T20:09:16.157Z,0.40
2022-11-21T20:11:46.486Z,0.30
2022-11-21T20:14:20.950Z,0.30
2022-11-21T20:16:50.308Z,0.30
2022-11-21T20:19:19.867Z,0.30
2022-11-21T20:21:47.928Z,0.30
2022-11-21T20:24:15.975Z,0.30
2022-11-21T20:26:43.843Z,0.30
2022-11-21T20:29:13.610Z,0.30
2022-11-21T20:31:40.853Z,0.20
2022-11-21T20:34:13.862Z,0.20
2022-11-21T20:36:42.299Z,0.20
2022-11-21T20:39:18.911Z,0.00
2022-11-21T20:41:48.061Z,0.00
2022-11-21T20:45:30.169Z,0.10
2022-11-21T20:47:07.865Z,0.10
2022-11-21T20:49:35.773Z,0.10
2022-11-21T20:54:50.097Z,0.00
2022-11-21T20:57:17.279Z,0.00
2022-11-21T20:59:44.334Z,-0.10
2022-11-21T21:02:14.969Z,-0.20
2022-11-21T21:04:42.631Z,-0.30
2022-11-21T21:07:10.132Z,-0.30
2022-11-21T21:09:37.301Z,-0.30
2022-11-21T21:12:05.690Z,-0.40
2022-11-21T21:14:32.970Z,-0.40
2022-11-21T21:17:00.087Z,-0.40
2022-11-21T21:19:27.522Z,-0.40
2022-11-21T21:21:54.887Z,-0.40
2022-11-21T21:24:22.002Z,-0.40
2022-11-21T21:26:49.759Z,-0.40
2022-11-21T21:29:20.278Z,-0.40
2022-11-21T21:31:51.738Z,-0.40
2022-11-21T21:34:21.403Z,-0.40
2022-11-21T21:36:49.182Z,-0.40
2022-11-21T21:39:16.443Z,-0.30
2022-11-21T21:41:47.379Z,-0.10
2022-11-21T21:44:15.823Z,0.10
2022-11-21T21:46:43.166Z,0.00
2022-11-21T21:49:10.424Z,0.00
2022-11-21T21:51:37.763Z,0.00
2022-11-21T21:54:06.468Z,0.00
2022-11-21T21:56:34.185Z,0.00
2022-11-21T21:59:01.448Z,0.00
2022-11-21T22:01:31.628Z,0.10
2022-11-21T22:04:03.813Z,0.10
2022-11-21T22:06:33.982Z,0.10
2022-11-21T22:09:02.242Z,0.10
2022-11-21T22:11:32.325Z,0.00
2022-11-21T22:14:03.202Z,-0.10
2022-11-21T22:16:31.172Z,0.00
2022-11-21T22:18:58.468Z,0.00
2022-11-21T22:21:33.815Z,0.00
2022-11-21T22:26:51.381Z,0.10
2022-11-21T22:29:18.466Z,0.20
2022-11-21T22:31:45.557Z,0.20
2022-11-21T22:34:14.128Z,0.10
2022-11-21T22:36:41.640Z,0.00
2022-11-21T22:39:09.202Z,-0.10
2022-11-21T22:41:36.537Z,-0.10
2022-11-21T22:44:03.936Z,0.00
2022-11-21T22:46:31.201Z,0.00
2022-11-21T22:48:58.553Z,0.20
2022-11-21T22:51:29.530Z,0.30
2022-11-21T22:53:57.524Z,0.40
2022-11-21T22:56:26.075Z,0.40
2022-11-21T22:58:53.420Z,0.40
2022-11-21T23:01:24.276Z,0.50
2022-11-21T23:03:51.866Z,0.50
2022-11-21T23:06:23.591Z,0.60
2022-11-21T23:08:55.982Z,0.70
2022-11-21T23:11:27.703Z,0.80
2022-11-21T23:13:56.853Z,1.00
2022-11-21T23:16:25.230Z,1.10
2022-11-21T23:18:54.342Z,1.20
2022-11-21T23:21:21.652Z,1.30
2022-11-21T23:23:49.028Z,1.50
2022-11-21T23:26:16.158Z,1.60
2022-11-21T23:28:43.297Z,1.70
2022-11-21T23:31:10.889Z,1.70
2022-11-21T23:33:38.039Z,1.80
2022-11-21T23:36:05.782Z,1.90
2022-11-21T23:38:32.844Z,2.00
2022-11-21T23:40:59.893Z,2.10
2022-11-21T23:43:27.341Z,2.10
2022-11-21T23:45:55.086Z,2.20
2022-11-21T23:48:24.209Z,2.10
2022-11-21T23:50:52.112Z,2.00
2022-11-21T23:53:20.238Z,1.80
2022-11-21T23:55:48.417Z,1.60
2022-11-21T23:58:16.191Z,1.40
